createdAt,value
2023-07-06T00:00:51.541Z,27.12
2023-07-06T00:01:51.683Z,27.15
2023-07-06T00:02:51.783Z,27.12
2023-07-06T00:03:51.800Z,27.15
2023-07-06T00:04:51.863Z,27.13
2023-07-06T00:05:51.975Z,27.12
2023-07-06T00:06:52.063Z,27.13
2023-07-06T00:07:52.168Z,27.12
2023-07-06T00:08:52.245Z,27.15
2023-07-06T00:09:52.344Z,27.12
2023-07-06T00:10:52.473Z,27.15
2023-07-06T00:11:52.567Z,27.13
2023-07-06T00:12:52.632Z,27.11
2023-07-06T00:13:52.762Z,27.13
2023-07-06T00:14:52.795Z,27.12
2023-07-06T00:15:53.042Z,27.12
2023-07-06T00:16:53.028Z,27.16
2023-07-06T00:17:53.140Z,27.13
2023-07-06T00:18:53.377Z,27.11
2023-07-06T00:19:53.260Z,27.13
2023-07-06T00:20:53.362Z,27.13
2023-07-06T00:21:53.476Z,27.12
2023-07-06T00:22:53.590Z,27.11
2023-07-06T00:23:53.668Z,27.12
2023-07-06T00:24:53.736Z,27.11
2023-07-06T00:25:54.158Z,27.12
2023-07-06T00:26:53.922Z,27.11
2023-07-06T00:27:54.018Z,27.09
2023-07-06T00:28:54.089Z,27.09
2023-07-06T00:29:54.166Z,27.11
2023-07-06T00:30:54.260Z,27.11
2023-07-06T00:31:54.377Z,27.09
2023-07-06T00:32:54.424Z,27.08
2023-07-06T00:33:54.438Z,27.09
2023-07-06T00:34:54.496Z,27.11
2023-07-06T00:35:54.782Z,27.11
2023-07-06T00:36:54.620Z,27.08
2023-07-06T00:37:54.659Z,27.08
2023-07-06T00:38:54.742Z,27.08
2023-07-06T00:39:54.819Z,27.09
2023-07-06T00:40:54.882Z,27.08
2023-07-06T00:41:54.951Z,27.08
2023-07-06T00:42:55.021Z,27.08
2023-07-06T00:43:55.140Z,27.06
2023-07-06T00:44:55.200Z,27.04
2023-07-06T00:45:55.613Z,27.08
2023-07-06T00:46:55.390Z,27.06
2023-07-06T00:47:55.503Z,27.06
2023-07-06T00:48:55.592Z,27.06
2023-07-06T00:49:55.651Z,27.06
2023-07-06T00:50:55.705Z,27.08
2023-07-06T00:51:55.796Z,27.05
2023-07-06T00:52:55.911Z,27.06
2023-07-06T00:53:55.959Z,27.06
2023-07-06T00:54:56.041Z,27.05
2023-07-06T00:55:56.302Z,27.06
2023-07-06T00:56:56.170Z,27.06
2023-07-06T00:57:56.239Z,27.06
2023-07-06T00:58:56.315Z,27.06
2023-07-06T00:59:56.388Z,27.05
2023-07-06T01:00:56.475Z,27.05
2023-07-06T01:01:56.561Z,27.05
2023-07-06T01:02:56.732Z,27.05
2023-07-06T01:03:56.702Z,27.04
2023-07-06T01:04:56.733Z,27.05
2023-07-06T01:05:57.034Z,27.06
2023-07-06T01:06:56.827Z,27.05
2023-07-06T01:07:56.863Z,27.06
2023-07-06T01:08:56.907Z,27.04
2023-07-06T01:09:56.952Z,27.05
2023-07-06T01:10:56.988Z,27.04
2023-07-06T01:11:57.022Z,27.05
2023-07-06T01:12:57.065Z,27.06
2023-07-06T01:13:57.242Z,27.04
2023-07-06T01:14:58.995Z,27.02
2023-07-06T01:15:57.673Z,27.05
2023-07-06T01:16:57.466Z,27.06
2023-07-06T01:17:57.533Z,27.05
2023-07-06T01:18:57.580Z,27.05
2023-07-06T01:19:57.658Z,27.05
2023-07-06T01:20:57.772Z,27.06
2023-07-06T01:21:57.869Z,27.04
2023-07-06T01:22:57.974Z,27.05
2023-07-06T01:23:58.083Z,27.04
2023-07-06T01:24:58.192Z,27.05
2023-07-06T01:25:58.761Z,27.05
2023-07-06T01:26:58.409Z,27.04
2023-07-06T01:27:58.502Z,27.05
2023-07-06T01:28:58.657Z,27.04
2023-07-06T01:29:58.684Z,27.02
2023-07-06T01:30:58.763Z,26.99
2023-07-06T01:31:58.749Z,27.01
2023-07-06T01:32:58.788Z,27.01
2023-07-06T01:33:58.827Z,27.01
2023-07-06T01:34:58.861Z,27.01
2023-07-06T01:35:58.901Z,27.01
2023-07-06T01:36:58.937Z,27.01
2023-07-06T01:37:58.992Z,27.01
2023-07-06T01:38:59.017Z,27.01
2023-07-06T01:39:59.077Z,27.01
2023-07-06T01:40:59.107Z,27.01
2023-07-06T01:41:59.146Z,27.01
2023-07-06T01:42:59.181Z,26.98
2023-07-06T01:43:59.225Z,27.02
2023-07-06T01:44:59.273Z,27.01
2023-07-06T01:45:59.375Z,27.02
2023-07-06T01:46:59.408Z,27.02
2023-07-06T01:47:59.456Z,27.01
2023-07-06T01:48:59.485Z,27.01
2023-07-06T01:49:59.585Z,27.02
2023-07-06T01:50:59.690Z,27.01
2023-07-06T01:51:59.810Z,27.01
2023-07-06T01:52:59.837Z,27.04
2023-07-06T01:53:59.884Z,27.02
2023-07-06T01:55:00.023Z,27.02
2023-07-06T01:55:59.947Z,27.01
2023-07-06T01:56:59.993Z,27.02
2023-07-06T01:58:01.629Z,27.01
2023-07-06T01:59:00.075Z,27.01
2023-07-06T02:00:00.177Z,26.99
2023-07-06T02:01:00.268Z,27.02
2023-07-06T02:02:00.293Z,27.01
2023-07-06T02:03:00.529Z,27.02
2023-07-06T02:04:00.443Z,27.01
2023-07-06T02:05:00.578Z,27.01
2023-07-06T02:06:00.673Z,27.01
2023-07-06T02:07:00.781Z,27.01
2023-07-06T02:08:00.904Z,27.01
2023-07-06T02:09:00.984Z,27.02
2023-07-06T02:10:01.070Z,27.04
2023-07-06T02:11:01.170Z,27.01
2023-07-06T02:12:01.279Z,26.99
2023-07-06T02:13:01.392Z,26.99
2023-07-06T02:14:01.545Z,27.01
2023-07-06T02:15:01.570Z,26.99
2023-07-06T02:16:01.654Z,27.02
2023-07-06T02:17:01.770Z,26.99
2023-07-06T02:18:01.843Z,26.98
2023-07-06T02:19:01.912Z,26.98
2023-07-06T02:20:01.980Z,26.98
2023-07-06T02:21:02.147Z,26.98
2023-07-06T02:22:02.151Z,26.98
2023-07-06T02:23:02.226Z,26.97
2023-07-06T02:24:02.310Z,26.95
2023-07-06T02:25:02.395Z,26.98
2023-07-06T02:26:02.488Z,26.98
2023-07-06T02:27:02.574Z,26.98
2023-07-06T02:28:02.652Z,26.99
2023-07-06T02:29:02.755Z,26.98
2023-07-06T02:30:02.847Z,26.98
2023-07-06T02:31:02.984Z,26.97
2023-07-06T02:32:02.991Z,26.97
2023-07-06T02:33:03.114Z,26.95
2023-07-06T02:34:03.202Z,26.98
2023-07-06T02:35:03.311Z,26.99
2023-07-06T02:36:03.389Z,26.99
2023-07-06T02:37:03.480Z,26.97
2023-07-06T02:38:03.600Z,26.97
2023-07-06T02:39:03.687Z,26.97
2023-07-06T02:40:03.811Z,26.97
2023-07-06T02:41:03.909Z,26.98
2023-07-06T02:42:03.998Z,26.98
2023-07-06T02:43:04.121Z,26.97
2023-07-06T02:44:04.162Z,26.98
2023-07-06T02:45:04.208Z,26.97
2023-07-06T02:46:04.349Z,26.97
2023-07-06T02:47:04.382Z,26.97
2023-07-06T02:48:04.544Z,26.97
2023-07-06T02:49:04.588Z,26.97
2023-07-06T02:50:04.684Z,26.94
2023-07-06T02:51:04.781Z,26.97
2023-07-06T02:52:04.856Z,26.95
2023-07-06T02:53:04.940Z,26.94
2023-07-06T02:54:05.039Z,26.94
2023-07-06T02:55:05.130Z,26.94
2023-07-06T02:56:05.234Z,26.94
2023-07-06T02:57:05.300Z,26.94
2023-07-06T02:58:05.376Z,26.93
2023-07-06T02:59:05.451Z,26.94
2023-07-06T03:00:05.529Z,26.93
2023-07-06T03:01:05.599Z,26.93
2023-07-06T03:02:05.693Z,26.94
2023-07-06T03:03:05.730Z,26.93
2023-07-06T03:04:05.825Z,26.91
2023-07-06T03:05:05.927Z,26.93
2023-07-06T03:06:05.933Z,26.94
2023-07-06T03:07:05.986Z,26.93
2023-07-06T03:08:06.042Z,26.91
2023-07-06T03:09:06.105Z,26.91
2023-07-06T03:10:06.155Z,26.88
2023-07-06T03:11:06.207Z,26.87
2023-07-06T03:12:06.250Z,26.87
2023-07-06T03:13:06.317Z,26.85
2023-07-06T03:14:06.360Z,26.83
2023-07-06T03:15:06.406Z,26.83
2023-07-06T03:16:06.487Z,26.77
2023-07-06T03:17:06.516Z,26.73
2023-07-06T03:18:06.583Z,26.66
2023-07-06T03:19:06.663Z,26.66
2023-07-06T03:20:06.713Z,26.60
2023-07-06T03:21:06.793Z,26.57
2023-07-06T03:22:06.860Z,26.56
2023-07-06T03:23:06.938Z,26.50
2023-07-06T03:24:06.986Z,26.47
2023-07-06T03:25:07.041Z,26.44
2023-07-06T03:26:07.097Z,26.40
2023-07-06T03:27:07.130Z,26.36
2023-07-06T03:28:07.179Z,26.36
2023-07-06T03:29:07.233Z,26.30
2023-07-06T03:30:07.292Z,26.30
2023-07-06T03:31:07.379Z,26.25
2023-07-06T03:32:07.411Z,26.25
2023-07-06T03:33:07.494Z,26.22
2023-07-06T03:34:07.624Z,26.21
2023-07-06T03:35:07.555Z,26.18
2023-07-06T03:36:07.610Z,26.15
2023-07-06T03:37:07.697Z,26.13
2023-07-06T03:38:07.725Z,26.11
2023-07-06T03:39:07.797Z,26.13
2023-07-06T03:40:07.849Z,26.11
2023-07-06T03:41:07.940Z,26.08
2023-07-06T03:42:08.033Z,26.05
2023-07-06T03:43:08.144Z,26.05
2023-07-06T03:44:08.226Z,26.05
2023-07-06T03:45:08.364Z,26.04
2023-07-06T03:46:08.492Z,26.02
2023-07-06T03:47:08.609Z,26.01
2023-07-06T03:48:08.653Z,26.02
2023-07-06T03:49:08.768Z,26.01
2023-07-06T03:50:08.869Z,25.98
2023-07-06T03:51:09.000Z,25.98
2023-07-06T03:52:09.080Z,25.98
2023-07-06T03:53:09.191Z,25.98
2023-07-06T03:54:09.304Z,25.92
2023-07-06T03:55:09.465Z,25.92
2023-07-06T03:56:09.522Z,25.91
2023-07-06T03:57:09.637Z,25.91
2023-07-06T03:58:09.788Z,25.91
2023-07-06T03:59:09.870Z,25.89
2023-07-06T04:00:09.973Z,25.92
2023-07-06T04:01:10.107Z,25.89
2023-07-06T04:02:10.190Z,25.89
2023-07-06T04:03:10.358Z,25.91
2023-07-06T04:04:10.410Z,25.92
2023-07-06T04:05:10.527Z,25.89
2023-07-06T04:06:10.640Z,25.92
2023-07-06T04:07:10.748Z,25.89
2023-07-06T04:08:10.855Z,25.91
2023-07-06T04:09:10.990Z,25.89
2023-07-06T04:10:11.098Z,25.89
2023-07-06T04:11:11.134Z,25.88
2023-07-06T04:12:11.201Z,25.87
2023-07-06T04:13:11.403Z,25.84
2023-07-06T04:14:11.310Z,25.85
2023-07-06T04:15:11.365Z,25.84
2023-07-06T04:16:11.414Z,25.84
2023-07-06T04:17:11.488Z,25.84
2023-07-06T04:18:11.621Z,25.81
2023-07-06T04:19:11.596Z,25.83
2023-07-06T04:20:11.671Z,25.81
2023-07-06T04:21:11.716Z,25.80
2023-07-06T04:22:11.819Z,25.78
2023-07-06T04:23:11.932Z,25.77
2023-07-06T04:24:12.054Z,25.78
2023-07-06T04:25:12.179Z,25.76
2023-07-06T04:26:12.294Z,25.78
2023-07-06T04:27:12.419Z,25.77
2023-07-06T04:28:12.543Z,25.73
2023-07-06T04:29:12.660Z,25.74
2023-07-06T04:30:12.778Z,25.74
2023-07-06T04:31:12.937Z,25.73
2023-07-06T04:32:13.003Z,25.71
2023-07-06T04:33:13.117Z,25.71
2023-07-06T04:34:13.257Z,25.68
2023-07-06T04:35:13.366Z,25.70
2023-07-06T04:36:13.494Z,25.70
2023-07-06T04:37:13.611Z,25.70
2023-07-06T04:38:13.732Z,25.67
2023-07-06T04:39:13.793Z,25.70
2023-07-06T04:40:13.848Z,25.67
2023-07-06T04:41:13.910Z,25.68
2023-07-06T04:42:13.975Z,25.68
2023-07-06T04:43:14.034Z,25.68
2023-07-06T04:44:14.095Z,25.67
2023-07-06T04:45:14.168Z,25.68
2023-07-06T04:46:14.228Z,25.68
2023-07-06T04:47:14.301Z,25.74
2023-07-06T04:48:14.326Z,25.70
2023-07-06T04:49:14.414Z,25.70
2023-07-06T04:50:14.532Z,25.70
2023-07-06T04:51:14.642Z,25.71
2023-07-06T04:52:14.766Z,25.73
2023-07-06T04:53:14.888Z,25.70
2023-07-06T04:54:14.949Z,25.68
2023-07-06T04:55:15.000Z,25.67
2023-07-06T04:56:15.061Z,25.67
2023-07-06T04:57:15.122Z,25.67
2023-07-06T04:58:15.171Z,25.66
2023-07-06T04:59:15.231Z,25.66
2023-07-06T05:00:15.302Z,25.64
2023-07-06T05:01:15.416Z,25.67
2023-07-06T05:02:15.407Z,25.67
2023-07-06T05:03:15.553Z,25.63
2023-07-06T05:04:15.583Z,25.64
2023-07-06T05:05:15.716Z,25.67
2023-07-06T05:06:15.848Z,25.64
2023-07-06T05:07:15.959Z,25.70
2023-07-06T05:08:16.089Z,25.74
2023-07-06T05:09:16.247Z,25.76
2023-07-06T05:10:16.354Z,25.77
2023-07-06T05:11:16.437Z,25.84
2023-07-06T05:12:16.565Z,25.89
2023-07-06T05:13:16.761Z,25.89
2023-07-06T05:14:16.744Z,25.94
2023-07-06T05:15:16.882Z,25.99
2023-07-06T05:16:16.917Z,26.01
2023-07-06T05:17:17.017Z,26.02
2023-07-06T05:18:17.097Z,26.06
2023-07-06T05:19:17.177Z,26.08
2023-07-06T05:20:17.255Z,26.11
2023-07-06T05:21:17.320Z,26.13
2023-07-06T05:22:19.060Z,26.16
2023-07-06T05:23:17.470Z,26.18
2023-07-06T05:24:17.582Z,26.15
2023-07-06T05:25:17.637Z,26.19
2023-07-06T05:26:17.710Z,26.21
2023-07-06T05:27:17.773Z,26.23
2023-07-06T05:28:17.857Z,26.25
2023-07-06T05:29:17.921Z,26.26
2023-07-06T05:30:20.787Z,26.28
2023-07-06T05:31:18.101Z,26.28
2023-07-06T05:32:18.110Z,26.29
2023-07-06T05:33:18.151Z,26.29
2023-07-06T05:34:18.203Z,26.32
2023-07-06T05:35:18.296Z,26.30
2023-07-06T05:36:18.297Z,26.32
2023-07-06T05:37:34.065Z,26.35
2023-07-06T05:38:19.395Z,26.35
2023-07-06T05:39:18.440Z,26.35
2023-07-06T05:40:18.511Z,26.38
2023-07-06T05:41:18.536Z,26.35
2023-07-06T05:42:18.595Z,26.36
2023-07-06T05:43:18.646Z,26.35
2023-07-06T05:44:18.686Z,26.35
2023-07-06T05:45:18.731Z,26.33
2023-07-06T05:46:18.820Z,26.29
2023-07-06T05:47:18.906Z,26.30
2023-07-06T05:48:18.925Z,26.28
2023-07-06T05:49:18.972Z,26.28
2023-07-06T05:50:19.051Z,26.25
2023-07-06T05:51:19.073Z,26.22
2023-07-06T05:52:19.141Z,26.21
2023-07-06T05:53:19.183Z,26.18
2023-07-06T05:54:19.248Z,26.18
2023-07-06T05:55:19.298Z,26.16
2023-07-06T05:56:19.401Z,26.13
2023-07-06T05:57:19.401Z,26.13
2023-07-06T05:58:19.459Z,26.13
2023-07-06T05:59:19.526Z,26.09
2023-07-06T06:00:19.576Z,26.08
2023-07-06T06:01:19.637Z,26.08
2023-07-06T06:02:19.756Z,26.08
2023-07-06T06:03:19.737Z,26.05
2023-07-06T06:04:19.873Z,26.04
2023-07-06T06:05:19.860Z,26.02
2023-07-06T06:06:19.935Z,26.02
2023-07-06T06:07:19.965Z,26.01
2023-07-06T06:08:20.021Z,26.04
2023-07-06T06:09:20.103Z,26.01
2023-07-06T06:10:20.207Z,25.98
2023-07-06T06:11:20.341Z,25.99
2023-07-06T06:12:20.524Z,25.99
2023-07-06T06:13:20.574Z,25.96
2023-07-06T06:14:20.694Z,25.96
2023-07-06T06:15:20.762Z,25.94
2023-07-06T06:16:20.896Z,25.94
2023-07-06T06:17:21.084Z,25.94
2023-07-06T06:18:21.093Z,25.92
2023-07-06T06:19:21.221Z,25.94
2023-07-06T06:20:21.342Z,25.91
2023-07-06T06:21:21.412Z,25.92
2023-07-06T06:22:21.535Z,25.94
2023-07-06T06:23:21.627Z,25.91
2023-07-06T06:24:21.757Z,25.89
2023-07-06T06:25:21.864Z,25.87
2023-07-06T06:26:21.968Z,25.88
2023-07-06T06:27:22.059Z,25.89
2023-07-06T06:28:22.180Z,25.89
2023-07-06T06:29:22.279Z,25.89
2023-07-06T06:30:22.380Z,25.89
2023-07-06T06:31:22.521Z,25.88
2023-07-06T06:32:22.623Z,25.89
2023-07-06T06:33:22.695Z,25.89
2023-07-06T06:34:22.808Z,25.89
2023-07-06T06:35:22.997Z,25.88
2023-07-06T06:36:23.055Z,25.87
2023-07-06T06:37:23.125Z,25.89
2023-07-06T06:38:23.245Z,25.85
2023-07-06T06:39:23.360Z,25.88
2023-07-06T06:40:23.459Z,25.88
2023-07-06T06:41:23.553Z,25.87
2023-07-06T06:42:23.664Z,25.88
2023-07-06T06:43:23.770Z,25.88
2023-07-06T06:44:23.880Z,25.89
2023-07-06T06:45:24.006Z,25.88
2023-07-06T06:46:24.259Z,25.88
2023-07-06T06:47:24.237Z,25.89
2023-07-06T06:48:24.334Z,25.89
2023-07-06T06:49:24.441Z,25.87
2023-07-06T06:50:24.558Z,25.88
2023-07-06T06:51:24.666Z,25.88
2023-07-06T06:52:24.784Z,25.89
2023-07-06T06:53:24.871Z,25.89
2023-07-06T06:54:24.989Z,25.88
2023-07-06T06:55:25.045Z,25.89
2023-07-06T06:56:25.107Z,25.91
2023-07-06T06:57:25.184Z,25.88
2023-07-06T06:58:25.224Z,25.89
2023-07-06T06:59:25.290Z,25.88
2023-07-06T07:00:25.330Z,25.88
2023-07-06T07:01:25.453Z,25.89
2023-07-06T07:02:25.463Z,25.89
2023-07-06T07:03:25.525Z,25.89
2023-07-06T07:04:25.558Z,25.91
2023-07-06T07:05:25.611Z,25.88
2023-07-06T07:06:25.663Z,25.88
2023-07-06T07:07:25.721Z,25.89
2023-07-06T07:08:25.816Z,25.91
2023-07-06T07:09:25.918Z,25.89
2023-07-06T07:10:26.026Z,25.89
2023-07-06T07:11:26.129Z,25.88
2023-07-06T07:12:26.251Z,25.88
2023-07-06T07:13:26.385Z,25.85
2023-07-06T07:14:26.411Z,25.89
2023-07-06T07:15:26.475Z,25.92
2023-07-06T07:16:26.586Z,25.95
2023-07-06T07:17:26.612Z,26.01
2023-07-06T07:18:26.660Z,26.09
2023-07-06T07:19:26.709Z,26.15
2023-07-06T07:20:26.776Z,26.21
2023-07-06T07:21:26.816Z,26.25
2023-07-06T07:22:27.388Z,26.32
2023-07-06T07:23:26.908Z,26.28
2023-07-06T07:24:27.023Z,26.35
2023-07-06T07:25:29.470Z,26.43
2023-07-06T07:26:27.166Z,26.43
2023-07-06T07:27:27.142Z,26.50
2023-07-06T07:28:27.191Z,26.53
2023-07-06T07:29:27.283Z,26.56
2023-07-06T07:30:27.348Z,26.61
2023-07-06T07:31:27.380Z,26.61
2023-07-06T07:32:27.417Z,26.67
2023-07-06T07:33:27.437Z,26.71
2023-07-06T07:34:27.506Z,26.71
2023-07-06T07:35:27.572Z,26.74
2023-07-06T07:36:27.650Z,26.77
2023-07-06T07:37:27.676Z,26.78
2023-07-06T07:38:27.711Z,26.80
2023-07-06T07:39:27.834Z,26.83
2023-07-06T07:40:27.796Z,26.85
2023-07-06T07:41:27.831Z,26.88
2023-07-06T07:42:27.897Z,26.90
2023-07-06T07:43:27.942Z,26.94
2023-07-06T07:44:27.976Z,26.97
2023-07-06T07:45:28.089Z,26.94
2023-07-06T07:46:28.156Z,26.98
2023-07-06T07:47:28.219Z,26.97
2023-07-06T07:48:28.154Z,26.97
2023-07-06T07:49:28.256Z,26.95
2023-07-06T07:50:28.255Z,26.95
2023-07-06T07:51:28.296Z,26.93
2023-07-06T07:52:28.321Z,26.93
2023-07-06T07:53:28.367Z,26.91
2023-07-06T07:54:28.417Z,26.88
2023-07-06T07:55:28.481Z,26.87
2023-07-06T07:56:28.510Z,26.87
2023-07-06T07:57:28.551Z,26.87
2023-07-06T07:58:28.689Z,26.84
2023-07-06T07:59:28.682Z,26.84
2023-07-06T08:00:28.712Z,26.83
2023-07-06T08:01:28.796Z,26.85
2023-07-06T08:02:28.860Z,26.84
2023-07-06T08:03:28.898Z,26.81
2023-07-06T08:04:28.895Z,26.81
2023-07-06T08:05:28.929Z,26.84
2023-07-06T08:06:29.015Z,26.83
2023-07-06T08:07:29.035Z,26.80
2023-07-06T08:08:29.089Z,26.83
2023-07-06T08:09:29.133Z,26.83
2023-07-06T08:10:29.168Z,26.84
2023-07-06T08:11:29.214Z,26.87
2023-07-06T08:12:29.266Z,26.87
2023-07-06T08:13:29.350Z,26.88
2023-07-06T08:14:29.359Z,26.88
2023-07-06T08:15:29.410Z,26.87
2023-07-06T08:16:29.530Z,26.88
2023-07-06T08:17:29.507Z,26.88
2023-07-06T08:18:29.560Z,26.88
2023-07-06T08:19:41.655Z,26.90
2023-07-06T08:21:28.207Z,26.93
2023-07-06T08:21:51.634Z,26.94
2023-07-06T08:22:30.755Z,26.94
2023-07-06T08:23:29.784Z,26.97
2023-07-06T08:24:29.826Z,26.97
2023-07-06T08:25:29.878Z,27.02
2023-07-06T08:26:29.941Z,27.08
2023-07-06T08:27:29.933Z,27.11
2023-07-06T08:28:29.989Z,27.15
2023-07-06T08:29:30.039Z,27.18
2023-07-06T08:30:30.054Z,27.21
2023-07-06T08:31:30.159Z,27.22
2023-07-06T08:32:30.161Z,27.25
2023-07-06T08:33:30.165Z,27.25
2023-07-06T08:34:30.212Z,27.24
2023-07-06T08:35:30.237Z,27.25
2023-07-06T08:36:30.265Z,27.26
2023-07-06T08:37:30.320Z,27.28
2023-07-06T08:38:30.347Z,27.28
2023-07-06T08:39:30.387Z,27.30
2023-07-06T08:40:30.428Z,27.29
2023-07-06T08:41:30.463Z,27.29
2023-07-06T08:42:30.523Z,27.32
2023-07-06T08:43:30.549Z,27.32
2023-07-06T08:44:30.592Z,27.33
2023-07-06T08:45:30.653Z,27.35
2023-07-06T08:46:30.737Z,27.35
2023-07-06T08:47:30.835Z,27.38
2023-07-06T08:48:30.926Z,27.38
2023-07-06T08:49:31.338Z,27.39
2023-07-06T08:50:31.152Z,27.40
2023-07-06T08:51:31.262Z,27.42
2023-07-06T08:52:31.362Z,27.42
2023-07-06T08:53:31.481Z,27.43
2023-07-06T08:54:31.588Z,27.45
2023-07-06T08:55:31.706Z,27.43
2023-07-06T08:56:31.811Z,27.42
2023-07-06T08:57:31.976Z,27.43
2023-07-06T08:58:32.093Z,27.43
2023-07-06T08:59:32.155Z,27.42
2023-07-06T09:00:32.254Z,27.36
2023-07-06T09:01:32.346Z,27.39
2023-07-06T09:02:32.428Z,27.36
2023-07-06T09:03:32.502Z,27.35
2023-07-06T09:04:32.576Z,27.32
2023-07-06T09:05:32.725Z,27.30
2023-07-06T09:06:32.804Z,27.32
2023-07-06T09:07:32.889Z,27.29
2023-07-06T09:08:32.971Z,27.24
2023-07-06T09:09:33.109Z,27.19
2023-07-06T09:10:33.127Z,27.21
2023-07-06T09:11:33.220Z,27.18
2023-07-06T09:12:33.281Z,27.19
2023-07-06T09:13:33.416Z,27.19
2023-07-06T09:14:33.469Z,27.18
2023-07-06T09:15:35.911Z,27.19
2023-07-06T09:16:33.598Z,27.22
2023-07-06T09:17:33.635Z,27.25
2023-07-06T09:18:33.636Z,27.26
2023-07-06T09:19:33.677Z,27.26
2023-07-06T09:20:33.710Z,27.30
2023-07-06T09:21:33.750Z,27.29
2023-07-06T09:22:33.800Z,27.32
2023-07-06T09:23:33.854Z,27.35
2023-07-06T09:24:33.871Z,27.33
2023-07-06T09:25:33.909Z,27.35
2023-07-06T09:26:34.325Z,27.38
2023-07-06T09:27:34.076Z,27.36
2023-07-06T09:28:34.116Z,27.38
2023-07-06T09:29:34.225Z,27.39
2023-07-06T09:30:34.405Z,27.40
2023-07-06T09:31:34.378Z,27.43
2023-07-06T09:32:34.904Z,27.45
2023-07-06T09:33:34.482Z,27.45
2023-07-06T09:34:34.503Z,27.46
2023-07-06T09:35:34.542Z,27.46
2023-07-06T09:36:34.576Z,27.49
2023-07-06T09:37:34.623Z,27.49
2023-07-06T09:38:34.665Z,27.50
2023-07-06T09:39:34.712Z,27.50
2023-07-06T09:40:34.737Z,27.50
2023-07-06T09:41:34.774Z,27.49
2023-07-06T09:42:34.859Z,27.53
2023-07-06T09:43:34.866Z,27.52
2023-07-06T09:44:34.908Z,27.54
2023-07-06T09:45:34.918Z,27.57
2023-07-06T09:46:34.977Z,27.58
2023-07-06T09:47:35.096Z,27.60
2023-07-06T09:48:35.141Z,27.60
2023-07-06T09:49:35.233Z,27.63
2023-07-06T09:50:35.333Z,27.63
2023-07-06T09:51:35.420Z,27.64
2023-07-06T09:52:35.507Z,27.66
2023-07-06T09:53:35.594Z,27.70
2023-07-06T09:54:35.681Z,27.70
2023-07-06T09:55:35.767Z,27.68
2023-07-06T09:56:35.855Z,27.71
2023-07-06T09:57:35.941Z,27.73
2023-07-06T09:58:35.976Z,27.71
2023-07-06T09:59:36.010Z,27.74
2023-07-06T10:00:36.030Z,27.75
2023-07-06T10:01:36.096Z,27.71
2023-07-06T10:02:36.144Z,27.77
2023-07-06T10:03:36.133Z,27.75
2023-07-06T10:04:36.160Z,27.77
2023-07-06T10:05:36.258Z,27.79
2023-07-06T10:06:36.193Z,27.81
2023-07-06T10:07:36.221Z,27.83
2023-07-06T10:08:36.270Z,27.84
2023-07-06T10:09:36.356Z,27.83
2023-07-06T10:10:36.449Z,27.84
2023-07-06T10:11:36.506Z,27.85
2023-07-06T10:12:36.573Z,27.87
2023-07-06T10:13:36.708Z,27.85
2023-07-06T10:14:36.734Z,27.87
2023-07-06T10:15:36.837Z,27.87
2023-07-06T10:16:36.892Z,27.88
2023-07-06T10:17:37.067Z,27.87
2023-07-06T10:18:36.982Z,27.90
2023-07-06T10:19:37.020Z,27.90
2023-07-06T10:20:37.039Z,27.88
2023-07-06T10:21:37.077Z,27.90
2023-07-06T10:22:37.084Z,27.91
2023-07-06T10:23:37.127Z,27.90
2023-07-06T10:24:37.148Z,27.90
2023-07-06T10:25:37.182Z,27.87
2023-07-06T10:26:37.205Z,27.88
2023-07-06T10:27:37.232Z,27.91
2023-07-06T10:28:37.302Z,27.88
2023-07-06T10:29:37.285Z,27.88
2023-07-06T10:30:37.362Z,27.87
2023-07-06T10:31:37.479Z,27.90
2023-07-06T10:32:37.534Z,27.91
2023-07-06T10:33:37.592Z,27.90
2023-07-06T10:34:37.664Z,27.91
2023-07-06T10:35:37.756Z,27.88
2023-07-06T10:36:37.816Z,27.91
2023-07-06T10:37:37.885Z,27.92
2023-07-06T10:38:37.966Z,27.92
2023-07-06T10:39:37.992Z,27.91
2023-07-06T10:40:38.023Z,27.91
2023-07-06T10:41:38.056Z,27.92
2023-07-06T10:42:38.079Z,27.90
2023-07-06T10:43:38.109Z,27.92
2023-07-06T10:44:38.136Z,27.92
2023-07-06T10:45:38.179Z,27.97
2023-07-06T10:46:38.297Z,27.97
2023-07-06T10:47:38.235Z,28.00
2023-07-06T10:48:38.249Z,28.00
2023-07-06T10:49:38.281Z,28.02
2023-07-06T10:50:38.317Z,28.04
2023-07-06T10:51:38.380Z,28.04
2023-07-06T10:52:38.433Z,28.04
2023-07-06T10:53:38.522Z,28.08
2023-07-06T10:54:38.660Z,28.08
2023-07-06T10:55:38.681Z,28.07
2023-07-06T10:56:38.728Z,28.09
2023-07-06T10:57:38.804Z,28.08
2023-07-06T10:58:38.885Z,28.09
2023-07-06T10:59:38.942Z,28.11
2023-07-06T11:00:39.027Z,28.12
2023-07-06T11:01:39.161Z,28.12
2023-07-06T11:02:39.185Z,28.11
2023-07-06T11:03:39.332Z,28.13
2023-07-06T11:04:39.925Z,28.13
2023-07-06T11:05:39.396Z,28.13
2023-07-06T11:06:39.483Z,28.15
2023-07-06T11:07:39.553Z,28.15
2023-07-06T11:08:39.619Z,28.15
2023-07-06T11:09:39.704Z,28.18
2023-07-06T11:10:41.434Z,28.18
2023-07-06T11:11:40.103Z,28.19
2023-07-06T11:12:40.132Z,28.22
2023-07-06T11:13:40.254Z,28.21
2023-07-06T11:14:40.285Z,28.19
2023-07-06T11:15:40.447Z,28.19
2023-07-06T11:16:40.492Z,28.19
2023-07-06T11:17:40.417Z,28.22
2023-07-06T11:18:40.446Z,28.18
2023-07-06T11:19:40.454Z,28.16
2023-07-06T11:20:40.485Z,28.18
2023-07-06T11:21:40.527Z,28.13
2023-07-06T11:22:40.529Z,28.15
2023-07-06T11:23:40.570Z,28.13
2023-07-06T11:24:40.592Z,28.12
2023-07-06T11:25:40.599Z,28.12
2023-07-06T11:26:40.664Z,28.13
2023-07-06T11:27:40.669Z,28.12
2023-07-06T11:28:40.724Z,28.11
2023-07-06T11:29:40.800Z,28.11
2023-07-06T11:30:40.893Z,28.13
2023-07-06T11:31:40.970Z,28.12
2023-07-06T11:32:41.042Z,28.11
2023-07-06T11:33:41.124Z,28.12
2023-07-06T11:34:41.210Z,28.12
2023-07-06T11:35:41.237Z,28.12
2023-07-06T11:36:41.262Z,28.11
2023-07-06T11:37:53.572Z,28.12
2023-07-06T11:38:42.318Z,28.16
2023-07-06T11:39:41.348Z,28.13
2023-07-06T11:40:41.370Z,28.15
2023-07-06T11:41:41.408Z,28.13
2023-07-06T11:42:41.412Z,28.15
2023-07-06T11:43:41.464Z,28.15
2023-07-06T11:44:41.474Z,28.16
2023-07-06T11:45:41.507Z,28.18
2023-07-06T11:46:41.529Z,28.16
2023-07-06T11:47:41.563Z,28.16
2023-07-06T11:48:41.576Z,28.19
2023-07-06T11:49:41.624Z,28.18
2023-07-06T11:50:41.635Z,28.18
2023-07-06T11:51:41.671Z,28.16
2023-07-06T11:52:41.691Z,28.18
2023-07-06T11:53:41.721Z,28.18
2023-07-06T11:54:41.791Z,28.18
2023-07-06T11:55:41.788Z,28.18
2023-07-06T11:56:41.816Z,28.16
2023-07-06T11:57:41.847Z,28.18
2023-07-06T11:58:41.859Z,28.16
2023-07-06T11:59:41.979Z,28.16
2023-07-06T12:00:41.946Z,28.15
2023-07-06T12:01:42.137Z,28.16
2023-07-06T12:02:42.040Z,28.15
2023-07-06T12:03:42.063Z,28.15
2023-07-06T12:04:42.117Z,28.15
2023-07-06T12:05:42.119Z,28.16
2023-07-06T12:06:42.116Z,28.15
2023-07-06T12:07:42.148Z,28.12
2023-07-06T12:08:42.194Z,28.11
2023-07-06T12:09:42.212Z,28.09
2023-07-06T12:10:42.268Z,28.07
2023-07-06T12:11:42.293Z,28.08
2023-07-06T12:12:42.316Z,28.08
2023-07-06T12:13:42.439Z,28.04
2023-07-06T12:14:42.371Z,28.01
2023-07-06T12:15:42.491Z,28.01
2023-07-06T12:16:42.507Z,28.01
2023-07-06T12:17:42.511Z,28.00
2023-07-06T12:18:42.530Z,27.97
2023-07-06T12:19:42.532Z,27.94
2023-07-06T12:20:42.548Z,27.95
2023-07-06T12:21:42.582Z,27.95
2023-07-06T12:22:42.609Z,27.95
2023-07-06T12:23:42.661Z,27.95
2023-07-06T12:24:42.686Z,27.94
2023-07-06T12:25:42.764Z,27.97
2023-07-06T12:26:42.733Z,27.95
2023-07-06T12:27:42.762Z,27.95
2023-07-06T12:28:42.795Z,27.95
2023-07-06T12:29:42.829Z,27.92
2023-07-06T12:30:42.867Z,27.94
2023-07-06T12:31:42.877Z,27.95
2023-07-06T12:32:42.917Z,27.94
2023-07-06T12:33:42.944Z,27.97
2023-07-06T12:34:42.975Z,27.95
2023-07-06T12:35:43.005Z,27.97
2023-07-06T12:36:43.045Z,27.94
2023-07-06T12:37:43.082Z,27.95
2023-07-06T12:38:43.123Z,27.97
2023-07-06T12:39:43.158Z,27.95
2023-07-06T12:40:43.262Z,27.97
2023-07-06T12:41:43.221Z,27.97
2023-07-06T12:42:43.291Z,27.98
2023-07-06T12:43:43.386Z,27.98
2023-07-06T12:44:43.404Z,28.01
2023-07-06T12:45:43.463Z,28.01
2023-07-06T12:46:43.519Z,28.01
2023-07-06T12:47:43.542Z,28.02
2023-07-06T12:48:43.525Z,28.04
2023-07-06T12:49:43.547Z,28.04
2023-07-06T12:50:43.583Z,28.05
2023-07-06T12:51:43.610Z,28.07
2023-07-06T12:52:43.649Z,28.09
2023-07-06T12:53:43.664Z,28.08